Time;durP1;ratioP1;P1;durP2;ratioP2;P2;SDS_P1;SDS_P2;PMS_P1;PMS_P2;Temp;Humidity;BMP_temperature;BMP_pressure;BME280_temperature;BME280_humidity;BME280_pressure;Samples;Min_cycle;Max_cycle;Signal;HPM_P1;HPM_P2
2022/10/06 00:01:09;;;;;;;9.73;4.00;;;12.70;99.90;;;;;;5089198;28;20215;-71
2022/10/06 00:03:37;;;;;;;5.20;3.50;;;12.70;99.90;;;;;;5090686;28;20214;-70
2022/10/06 00:06:05;;;;;;;7.30;3.80;;;12.70;99.90;;;;;;5091465;28;20208;-71
2022/10/06 00:08:33;;;;;;;10.97;4.30;;;12.70;99.90;;;;;;5091524;28;20200;-70
2022/10/06 00:11:00;;;;;;;5.57;4.03;;;12.70;99.90;;;;;;5091767;28;20625;-70
2022/10/06 00:13:28;;;;;;;12.23;3.93;;;12.70;99.90;;;;;;5091686;28;20559;-69
2022/10/06 00:15:55;;;;;;;8.67;4.10;;;12.70;99.90;;;;;;5091490;28;20210;-70
2022/10/06 00:18:23;;;;;;;9.40;3.93;;;12.70;99.90;;;;;;5091661;28;20249;-72
2022/10/06 00:20:54;;;;;;;5.53;3.73;;;12.70;99.90;;;;;;5093487;28;20211;-71
2022/10/06 00:23:21;;;;;;;7.83;3.80;;;12.70;99.90;;;;;;5095798;28;20196;-71
2022/10/06 00:25:48;;;;;;;8.03;4.23;;;12.70;99.90;;;;;;5091010;28;20199;-70
2022/10/06 00:28:15;;;;;;;6.77;3.87;;;12.70;99.90;;;;;;5086964;28;20204;-71
2022/10/06 00:30:43;;;;;;;7.80;4.10;;;12.70;99.90;;;;;;5090780;28;20221;-70
2022/10/06 00:33:12;;;;;;;8.27;4.10;;;12.60;99.90;;;;;;5087687;28;20674;-69
2022/10/06 00:35:40;;;;;;;8.27;3.80;;;12.60;99.90;;;;;;5093172;28;20200;-68
2022/10/06 00:38:07;;;;;;;8.83;4.10;;;12.60;99.90;;;;;;5092545;28;20204;-70
2022/10/06 00:40:34;;;;;;;6.27;4.00;;;12.60;99.90;;;;;;5095267;28;20208;-71
2022/10/06 00:43:02;;;;;;;7.37;4.00;;;12.50;99.90;;;;;;5094046;28;20215;-71
2022/10/06 00:45:34;;;;;;;8.50;4.00;;;12.50;99.90;;;;;;5095430;28;20208;-70
2022/10/06 00:48:05;;;;;;;7.10;4.23;;;12.50;99.90;;;;;;5094721;28;20194;-70
2022/10/06 00:50:33;;;;;;;5.30;3.83;;;12.50;99.90;;;;;;5094571;28;20208;-71
2022/10/06 00:53:01;;;;;;;9.77;4.43;;;12.50;99.90;;;;;;5093650;28;20204;-70
2022/10/06 00:55:29;;;;;;;7.67;4.03;;;12.50;99.90;;;;;;5095202;28;20200;-72
2022/10/06 00:57:57;;;;;;;11.50;4.60;;;12.50;99.90;;;;;;5094582;28;20208;-71
2022/10/06 01:00:24;;;;;;;8.67;3.97;;;12.50;99.90;;;;;;5094776;28;20200;-71
2022/10/06 01:02:56;;;;;;;7.83;4.20;;;12.50;99.90;;;;;;5093783;28;20690;-70
2022/10/06 01:05:28;;;;;;;8.30;4.20;;;12.50;99.90;;;;;;5094975;28;20189;-72
2022/10/06 01:07:56;;;;;;;9.17;4.00;;;12.50;99.90;;;;;;5094760;28;20205;-71
2022/10/06 01:10:24;;;;;;;7.07;3.90;;;12.50;99.90;;;;;;5094420;28;20240;-70
2022/10/06 01:12:51;;;;;;;6.43;3.93;;;12.50;99.90;;;;;;5092440;28;20208;-70
2022/10/06 01:15:18;;;;;;;5.53;3.93;;;12.40;99.90;;;;;;5093918;28;20200;-71
2022/10/06 01:17:51;;;;;;;9.47;4.37;;;12.40;99.90;;;;;;5094138;28;20575;-70
2022/10/06 01:20:19;;;;;;;7.90;4.27;;;12.40;99.90;;;;;;5094373;28;20207;-69
2022/10/06 01:22:50;;;;;;;6.40;4.50;;;12.40;99.90;;;;;;5092711;28;20215;-70
2022/10/06 01:25:18;;;;;;;8.50;4.30;;;12.30;99.90;;;;;;5092225;28;20208;-71
2022/10/06 01:27:52;;;;;;;5.27;4.20;;;12.30;99.90;;;;;;5094186;28;20209;-70
2022/10/06 01:30:24;;;;;;;8.10;4.30;;;12.30;99.90;;;;;;5094054;28;20248;-69
2022/10/06 01:32:51;;;;;;;9.67;3.90;;;12.30;99.90;;;;;;5090202;28;20200;-71
2022/10/06 01:35:18;;;;;;;8.20;4.10;;;12.30;99.90;;;;;;5094332;28;20211;-69
2022/10/06 01:37:46;;;;;;;6.33;4.27;;;12.30;99.90;;;;;;5093658;28;20208;-68
2022/10/06 01:40:13;;;;;;;11.37;4.70;;;12.30;99.90;;;;;;5093772;28;20206;-70
2022/10/06 01:42:40;;;;;;;7.77;4.30;;;12.40;99.90;;;;;;5091913;28;20204;-70
2022/10/06 01:45:08;;;;;;;8.67;4.37;;;12.30;99.90;;;;;;5093866;28;20200;-70
2022/10/06 01:47:35;;;;;;;6.97;4.20;;;12.30;99.90;;;;;;5093886;28;20204;-70
2022/10/06 01:50:01;;;;;;;7.33;4.00;;;12.30;99.90;;;;;;5094043;28;20227;-70
2022/10/06 01:52:28;;;;;;;8.43;4.37;;;12.30;99.90;;;;;;5093834;28;20203;-71
2022/10/06 01:54:57;;;;;;;9.17;4.40;;;12.30;99.90;;;;;;5073254;28;20213;-70
2022/10/06 01:57:23;;;;;;;12.20;4.73;;;12.30;99.90;;;;;;5080371;28;20296;-70
2022/10/06 01:59:50;;;;;;;12.13;4.53;;;12.30;99.90;;;;;;5093420;28;20207;-70
2022/10/06 02:02:17;;;;;;;7.23;4.43;;;12.20;99.90;;;;;;5093304;28;20212;-70
2022/10/06 02:04:44;;;;;;;6.27;4.60;;;12.20;99.90;;;;;;5093214;28;20652;-70
2022/10/06 02:07:11;;;;;;;7.97;4.00;;;12.20;99.90;;;;;;5090678;28;20298;-70
2022/10/06 02:09:38;;;;;;;9.03;4.27;;;12.20;99.90;;;;;;5093311;28;20238;-70
2022/10/06 02:12:06;;;;;;;7.07;4.30;;;12.20;99.90;;;;;;5092270;28;20200;-69
2022/10/06 02:14:33;;;;;;;7.20;4.07;;;12.20;99.90;;;;;;5093178;28;20545;-69
2022/10/06 02:17:00;;;;;;;6.57;4.30;;;12.10;99.90;;;;;;5092486;28;20591;-70
2022/10/06 02:19:27;;;;;;;7.77;4.20;;;12.10;99.90;;;;;;5093134;28;20237;-69
2022/10/06 02:21:54;;;;;;;7.43;4.20;;;12.10;99.90;;;;;;5092790;28;20208;-70
2022/10/06 02:24:21;;;;;;;8.00;4.40;;;12.10;99.90;;;;;;5093610;28;20204;-70
2022/10/06 02:26:47;;;;;;;8.33;4.07;;;12.10;99.90;;;;;;5092063;28;20200;-70
2022/10/06 02:29:16;;;;;;;8.27;4.20;;;12.10;99.90;;;;;;5093274;28;20204;-71
2022/10/06 02:31:43;;;;;;;6.47;4.27;;;12.10;99.90;;;;;;5092903;28;20208;-71
2022/10/06 02:34:10;;;;;;;10.60;4.67;;;12.00;99.90;;;;;;5092791;28;20208;-69
2022/10/06 02:36:37;;;;;;;8.33;4.20;;;12.10;99.90;;;;;;5089962;28;20212;-70
2022/10/06 02:39:04;;;;;;;5.40;3.90;;;12.00;99.90;;;;;;5092249;28;20571;-70
2022/10/06 02:41:31;;;;;;;6.27;4.20;;;12.00;99.90;;;;;;5091991;28;20196;-70
2022/10/06 02:43:58;;;;;;;7.20;4.50;;;12.00;99.90;;;;;;5092814;28;20338;-70
2022/10/06 02:46:26;;;;;;;10.90;4.30;;;12.00;99.90;;;;;;5092782;28;20225;-70
2022/10/06 02:48:53;;;;;;;8.03;4.00;;;12.00;99.90;;;;;;5092383;28;20226;-70
2022/10/06 02:51:21;;;;;;;7.50;4.47;;;12.00;99.90;;;;;;5091582;28;20228;-70
2022/10/06 02:53:50;;;;;;;5.97;4.20;;;12.00;99.90;;;;;;5092043;28;20204;-70
2022/10/06 02:56:20;;;;;;;8.13;4.53;;;12.00;99.90;;;;;;5092547;28;20207;-71
2022/10/06 02:58:47;;;;;;;7.97;4.43;;;12.00;99.90;;;;;;5092686;28;20228;-70
2022/10/06 03:01:16;;;;;;;7.40;4.40;;;11.90;99.90;;;;;;5090927;28;20230;-70
2022/10/06 03:03:45;;;;;;;8.30;4.40;;;11.90;99.90;;;;;;5091827;28;20215;-69
2022/10/06 03:06:21;;;;;;;9.43;4.47;;;11.90;99.90;;;;;;5092543;28;20199;-68
2022/10/06 03:08:49;;;;;;;8.30;4.07;;;11.90;99.90;;;;;;5092382;28;20242;-70
2022/10/06 03:11:18;;;;;;;8.70;4.77;;;11.80;99.90;;;;;;5091461;28;20241;-71
2022/10/06 03:13:46;;;;;;;9.57;4.37;;;11.80;99.90;;;;;;5091962;28;20298;-72
2022/10/06 03:16:18;;;;;;;6.33;4.00;;;11.80;99.90;;;;;;5092440;28;20230;-71
2022/10/06 03:18:48;;;;;;;11.10;4.47;;;11.80;99.90;;;;;;5092273;28;20545;-70
2022/10/06 03:21:15;;;;;;;9.17;4.93;;;11.70;99.90;;;;;;5091557;28;20758;-71
2022/10/06 03:23:43;;;;;;;9.93;4.50;;;11.70;99.90;;;;;;5090656;28;20563;-72
2022/10/06 03:26:10;;;;;;;6.10;4.57;;;11.70;99.90;;;;;;5092374;28;20215;-71
2022/10/06 03:28:38;;;;;;;7.17;4.47;;;11.60;99.90;;;;;;5091675;28;20212;-70
2022/10/06 03:31:06;;;;;;;6.70;3.80;;;11.60;99.90;;;;;;5092252;28;20223;-71
2022/10/06 03:33:33;;;;;;;6.50;4.40;;;11.60;99.90;;;;;;5090371;28;20559;-71
2022/10/06 03:36:04;;;;;;;9.43;5.00;;;11.60;99.90;;;;;;5091261;28;20572;-71
2022/10/06 03:38:31;;;;;;;7.10;4.43;;;11.60;99.90;;;;;;5091584;28;20199;-70
2022/10/06 03:41:06;;;;;;;8.33;4.40;;;11.60;99.90;;;;;;5091903;28;20686;-71
2022/10/06 03:43:33;;;;;;;12.17;7.97;;;11.50;99.90;;;;;;5090571;28;20204;-72
2022/10/06 03:46:00;;;;;;;17.27;10.33;;;11.50;99.90;;;;;;5091935;28;20207;-69
2022/10/06 03:48:28;;;;;;;23.90;13.20;;;11.40;99.90;;;;;;5091661;28;20217;-68
2022/10/06 03:50:55;;;;;;;22.53;14.10;;;11.50;99.90;;;;;;5091741;28;20224;-70
2022/10/06 03:53:26;;;;;;;13.57;8.33;;;11.40;99.90;;;;;;5091519;28;20208;-70
2022/10/06 03:56:00;;;;;;;14.87;9.10;;;11.40;99.90;;;;;;5092261;28;20282;-69
2022/10/06 03:58:27;;;;;;;14.67;8.97;;;11.30;99.90;;;;;;5095851;28;20188;-70
2022/10/06 04:00:59;;;;;;;10.67;6.20;;;11.40;99.90;;;;;;5095623;28;20563;-70
2022/10/06 04:03:26;;;;;;;10.27;5.10;;;11.40;99.90;;;;;;5096009;28;20207;-70
2022/10/06 04:05:55;;;;;;;8.83;4.40;;;11.30;99.90;;;;;;5094132;28;20669;-70
2022/10/06 04:08:21;;;;;;;10.70;4.70;;;11.30;99.90;;;;;;5095365;28;20210;-69
2022/10/06 04:10:50;;;;;;;9.00;5.40;;;11.30;99.90;;;;;;5095296;28;20239;-70
2022/10/06 04:13:17;;;;;;;13.57;6.87;;;11.30;99.90;;;;;;5095185;28;20206;-70
2022/10/06 04:15:44;;;;;;;14.20;8.30;;;11.30;99.90;;;;;;5091837;28;20249;-69
2022/10/06 04:18:11;;;;;;;8.97;5.00;;;11.30;99.90;;;;;;5095617;28;20204;-71
2022/10/06 04:20:38;;;;;;;9.07;5.00;;;11.20;99.90;;;;;;5079879;28;20204;-71
2022/10/06 04:23:05;;;;;;;11.07;5.10;;;11.20;99.90;;;;;;5075099;28;20609;-70
2022/10/06 04:25:32;;;;;;;9.13;5.23;;;11.20;99.90;;;;;;5089247;28;20300;-69
2022/10/06 04:28:00;;;;;;;8.60;5.03;;;11.20;99.90;;;;;;5095907;28;20207;-69
2022/10/06 04:30:28;;;;;;;9.20;5.00;;;11.20;99.90;;;;;;5095471;28;20231;-70
2022/10/06 04:32:54;;;;;;;11.33;4.80;;;11.20;99.90;;;;;;5094441;28;20553;-70
2022/10/06 04:35:22;;;;;;;9.27;4.67;;;11.20;99.90;;;;;;5094679;28;20257;-73
2022/10/06 04:37:50;;;;;;;8.67;4.80;;;11.20;99.90;;;;;;5094869;28;20216;-69
2022/10/06 04:40:17;;;;;;;8.90;5.07;;;11.10;99.90;;;;;;5085733;28;20200;-70
2022/10/06 04:42:44;;;;;;;10.57;4.87;;;11.20;99.90;;;;;;5085553;28;20212;-70
2022/10/06 04:45:12;;;;;;;8.57;4.73;;;11.10;99.90;;;;;;5082785;28;20625;-70
2022/10/06 04:47:39;;;;;;;9.33;4.83;;;11.10;99.90;;;;;;5082635;28;20193;-70
2022/10/06 04:50:06;;;;;;;12.87;5.83;;;11.10;99.90;;;;;;5084108;28;20208;-70
2022/10/06 04:52:33;;;;;;;10.07;5.37;;;11.10;99.90;;;;;;5083620;28;20196;-71
2022/10/06 04:55:00;;;;;;;12.03;6.73;;;11.10;99.90;;;;;;5083521;28;20295;-71
2022/10/06 04:57:28;;;;;;;8.30;5.10;;;11.10;99.90;;;;;;5081755;28;20220;-71
2022/10/06 05:02:40;;;;;;;7.10;4.83;;;11.20;99.90;;;;;;5086097;28;20210;-70
2022/10/06 05:05:07;;;;;;;10.67;5.30;;;11.10;99.90;;;;;;5085147;28;20631;-71
2022/10/06 05:07:34;;;;;;;12.17;5.70;;;11.20;99.90;;;;;;5082340;28;20231;-71
2022/10/06 05:10:01;;;;;;;7.97;5.47;;;11.20;99.90;;;;;;5084675;28;20228;-70
2022/10/06 05:12:29;;;;;;;9.53;5.43;;;11.20;99.90;;;;;;5094192;28;20214;-69
2022/10/06 05:14:55;;;;;;;9.50;5.07;;;11.20;99.90;;;;;;5094266;28;20243;-69
2022/10/06 05:17:22;;;;;;;9.33;5.17;;;11.20;99.90;;;;;;5094436;28;20561;-71
2022/10/06 05:19:50;;;;;;;12.23;5.53;;;11.30;99.90;;;;;;5093255;28;20226;-70
2022/10/06 05:22:17;;;;;;;13.53;5.53;;;11.30;99.90;;;;;;5094335;28;20196;-71
2022/10/06 05:24:44;;;;;;;23.33;6.17;;;11.30;99.90;;;;;;5094472;28;20212;-68
2022/10/06 05:27:11;;;;;;;7.93;4.90;;;11.30;99.90;;;;;;5094286;28;20206;-69
2022/10/06 05:29:38;;;;;;;13.07;5.13;;;11.40;99.90;;;;;;5093075;28;20203;-71
2022/10/06 05:32:04;;;;;;;10.67;5.17;;;11.40;99.90;;;;;;5094124;28;20760;-69
2022/10/06 05:34:31;;;;;;;12.37;5.47;;;11.40;99.90;;;;;;5092472;28;20196;-71
2022/10/06 05:36:59;;;;;;;12.60;6.17;;;11.50;99.90;;;;;;5094295;28;20203;-72
2022/10/06 05:39:26;;;;;;;10.47;5.40;;;11.50;99.90;;;;;;5093873;28;20208;-71
2022/10/06 05:41:53;;;;;;;11.47;5.27;;;11.50;99.90;;;;;;5094133;28;20200;-69
2022/10/06 05:44:20;;;;;;;13.00;5.30;;;11.60;99.90;;;;;;5093402;28;20212;-71
2022/10/06 05:46:46;;;;;;;9.10;4.53;;;11.60;99.90;;;;;;5094182;28;20203;-70
2022/10/06 05:49:13;;;;;;;11.27;4.87;;;11.60;99.90;;;;;;5093735;28;20200;-70
2022/10/06 05:51:40;;;;;;;9.53;4.60;;;11.70;99.90;;;;;;5093633;28;20224;-70
2022/10/06 05:54:08;;;;;;;8.80;4.60;;;11.70;99.90;;;;;;5092359;28;20287;-70
2022/10/06 05:56:37;;;;;;;8.13;4.40;;;11.80;99.90;;;;;;5092684;28;20220;-69
2022/10/06 05:59:05;;;;;;;10.93;4.90;;;11.80;99.90;;;;;;5093811;28;20204;-70
2022/10/06 06:01:34;;;;;;;11.80;5.20;;;11.90;99.90;;;;;;5094305;28;20196;-72
2022/10/06 06:04:03;;;;;;;14.83;4.73;;;12.00;99.90;;;;;;5090350;28;20211;-72
2022/10/06 06:06:33;;;;;;;12.90;6.27;;;12.00;99.90;;;;;;5091043;28;20209;-70
2022/10/06 06:09:01;;;;;;;11.93;5.47;;;12.10;99.90;;;;;;5072946;28;20244;-72
2022/10/06 06:11:31;;;;;;;11.27;4.73;;;12.10;99.90;;;;;;5073389;28;20683;-71
2022/10/06 06:13:59;;;;;;;11.23;4.30;;;12.20;99.90;;;;;;5084725;28;20554;-71
2022/10/06 06:16:27;;;;;;;8.80;4.50;;;12.20;99.90;;;;;;5091695;28;20204;-72
2022/10/06 06:18:54;;;;;;;11.27;4.80;;;12.20;99.90;;;;;;5092665;28;20189;-72
2022/10/06 06:21:21;;;;;;;10.97;4.67;;;12.30;99.90;;;;;;5092778;28;20204;-73
2022/10/06 06:23:49;;;;;;;8.03;4.57;;;12.30;99.90;;;;;;5092499;28;20196;-70
2022/10/06 06:26:17;;;;;;;7.80;4.63;;;12.40;99.90;;;;;;5092750;28;20702;-72
2022/10/06 06:28:47;;;;;;;11.40;4.60;;;12.40;99.90;;;;;;5092631;28;20214;-71
2022/10/06 06:31:16;;;;;;;15.63;4.50;;;12.50;99.90;;;;;;5092904;28;20680;-71
2022/10/06 06:33:43;;;;;;;12.30;4.70;;;12.50;99.90;;;;;;5091888;28;20253;-71
2022/10/06 06:36:15;;;;;;;10.33;5.20;;;12.50;99.90;;;;;;5092363;28;20204;-71
2022/10/06 06:38:42;;;;;;;11.33;4.40;;;12.60;99.90;;;;;;5091929;28;20226;-71
2022/10/06 06:41:16;;;;;;;16.63;5.37;;;12.70;99.90;;;;;;5092465;28;20549;-72
2022/10/06 06:43:45;;;;;;;7.27;4.43;;;12.70;99.90;;;;;;5091295;28;20205;-71
2022/10/06 06:46:13;;;;;;;10.60;4.33;;;12.80;99.90;;;;;;5092276;28;20200;-71
2022/10/06 06:48:41;;;;;;;14.47;4.77;;;12.80;99.90;;;;;;5092682;28;20214;-72
2022/10/06 06:51:09;;;;;;;6.73;4.47;;;12.90;99.90;;;;;;5092330;28;20220;-70
2022/10/06 06:53:36;;;;;;;12.50;4.70;;;12.90;99.90;;;;;;5090916;28;20216;-71
2022/10/06 06:56:03;;;;;;;13.13;4.13;;;13.00;99.90;;;;;;5092039;28;20200;-72
2022/10/06 06:58:30;;;;;;;13.57;4.50;;;13.00;99.90;;;;;;5089093;28;20204;-70
2022/10/06 07:01:06;;;;;;;7.17;3.93;;;13.10;99.90;;;;;;5092143;28;20666;-72
2022/10/06 07:03:33;;;;;;;9.03;3.97;;;13.20;99.90;;;;;;5091504;28;20564;-69
2022/10/06 07:06:07;;;;;;;10.00;4.10;;;13.20;99.90;;;;;;5092080;28;20208;-71
2022/10/06 07:08:34;;;;;;;7.87;4.30;;;13.30;99.90;;;;;;5091631;28;20236;-70
2022/10/06 07:11:11;;;;;;;8.13;3.87;;;13.40;99.90;;;;;;5091988;28;20231;-69
2022/10/06 07:13:37;;;;;;;7.67;3.80;;;13.40;99.90;;;;;;5090935;28;20258;-71
2022/10/06 07:27:04;;;;;;;10.47;3.80;;;13.70;99.90;;;;;;5071640;28;20689;-71
2022/10/06 07:29:31;;;;;;;9.00;3.90;;;13.70;99.90;;;;;;5071214;28;20832;-70
2022/10/06 07:31:59;;;;;;;8.77;4.20;;;13.80;99.90;;;;;;5079215;28;20220;-69
2022/10/06 07:34:27;;;;;;;8.53;4.20;;;13.80;99.90;;;;;;5091614;28;20211;-71
2022/10/06 07:36:54;;;;;;;6.37;4.00;;;13.90;99.90;;;;;;5091401;28;20661;-72
2022/10/06 07:39:21;;;;;;;7.43;4.30;;;13.90;99.90;;;;;;5091723;28;20668;-70
2022/10/06 07:41:48;;;;;;;8.03;3.60;;;14.00;99.90;;;;;;5089711;28;20192;-69
2022/10/06 07:44:14;;;;;;;9.53;3.87;;;14.10;99.90;;;;;;5091876;28;20625;-70
2022/10/06 07:46:42;;;;;;;6.00;3.97;;;14.10;99.90;;;;;;5091522;28;20668;-72
2022/10/06 07:49:10;;;;;;;8.73;4.53;;;14.20;99.90;;;;;;5091694;28;20212;-70
2022/10/06 07:51:37;;;;;;;7.60;3.60;;;14.20;99.90;;;;;;5089777;28;20224;-70
2022/10/06 07:54:04;;;;;;;6.87;3.53;;;14.30;99.90;;;;;;5091462;28;20223;-71
2022/10/06 07:56:31;;;;;;;5.80;4.00;;;14.30;99.90;;;;;;5091521;28;20670;-71
2022/10/06 07:58:58;;;;;;;8.43;4.13;;;14.40;99.90;;;;;;5091515;28;20208;-70
2022/10/06 08:01:25;;;;;;;8.47;3.90;;;14.40;99.90;;;;;;5088677;28;20221;-72
2022/10/06 08:03:53;;;;;;;6.00;3.60;;;14.50;99.90;;;;;;5091349;28;20235;-70
2022/10/06 08:06:22;;;;;;;9.07;3.27;;;14.50;99.90;;;;;;5091734;28;20661;-70
2022/10/06 08:08:51;;;;;;;9.20;3.77;;;14.60;99.90;;;;;;5091212;28;20240;-71
2022/10/06 08:11:18;;;;;;;6.60;3.67;;;14.70;99.90;;;;;;5090468;28;20578;-70
2022/10/06 08:13:46;;;;;;;6.30;3.73;;;14.70;99.90;;;;;;5091255;28;20212;-72
2022/10/06 08:16:15;;;;;;;7.07;3.53;;;14.80;99.90;;;;;;5091153;28;20211;-71
2022/10/06 08:18:42;;;;;;;9.93;3.80;;;14.80;99.90;;;;;;5089208;28;20215;-71
2022/10/06 08:21:12;;;;;;;6.63;3.60;;;14.90;99.90;;;;;;5090827;28;20533;-72
2022/10/06 08:23:41;;;;;;;8.73;3.50;;;15.00;99.90;;;;;;5091116;28;20208;-73
2022/10/06 08:26:09;;;;;;;5.30;3.37;;;15.00;99.90;;;;;;5090440;28;20563;-70
2022/10/06 08:28:36;;;;;;;7.80;3.53;;;15.10;99.90;;;;;;5091202;28;20219;-73
2022/10/06 08:31:04;;;;;;;7.73;4.20;;;15.20;99.90;;;;;;5091228;28;20298;-70
2022/10/06 08:33:34;;;;;;;6.17;3.70;;;15.20;99.90;;;;;;5086507;28;20573;-71
2022/10/06 08:36:07;;;;;;;6.63;3.37;;;15.30;99.90;;;;;;5085538;28;20516;-69
2022/10/06 08:38:34;;;;;;;6.60;3.40;;;15.40;99.90;;;;;;5087369;28;20555;-71
2022/10/06 08:41:03;;;;;;;8.03;3.90;;;15.40;99.90;;;;;;5084422;28;20675;-69
2022/10/06 08:43:32;;;;;;;7.70;3.70;;;15.50;99.90;;;;;;5085773;28;20201;-70
2022/10/06 08:46:01;;;;;;;7.80;4.53;;;15.50;99.90;;;;;;5093773;28;20215;-72
2022/10/06 08:48:37;;;;;;;7.73;4.47;;;15.60;99.90;;;;;;5094164;28;20205;-71
2022/10/06 08:51:17;;;;;;;7.17;3.83;;;15.70;99.90;;;;;;5094765;28;20198;-72
2022/10/06 08:53:53;;;;;;;6.70;4.03;;;15.70;99.90;;;;;;5092381;28;20220;-70
2022/10/06 08:56:24;;;;;;;7.47;3.70;;;15.80;99.90;;;;;;5080419;28;20589;-71
2022/10/06 08:58:54;;;;;;;8.00;3.40;;;15.80;99.90;;;;;;5074830;28;20210;-71
2022/10/06 09:01:23;;;;;;;6.73;3.73;;;15.90;99.90;;;;;;5094940;28;20393;-72
2022/10/06 09:03:52;;;;;;;9.17;3.50;;;16.00;99.90;;;;;;5094803;28;20201;-70
2022/10/06 09:06:39;;;;;;;6.77;3.40;;;16.00;99.90;;;;;;5094854;28;20215;-70
2022/10/06 09:09:17;;;;;;;8.03;3.77;;;16.10;99.90;;;;;;5094543;28;20612;-70
2022/10/06 09:12:00;;;;;;;5.67;3.43;;;16.20;99.90;;;;;;5094300;28;20234;-70
2022/10/06 09:14:36;;;;;;;9.40;4.00;;;16.20;99.90;;;;;;5082756;28;20191;-70
2022/10/06 09:17:09;;;;;;;7.60;3.37;;;16.30;99.90;;;;;;5074320;28;20191;-72
2022/10/06 09:19:43;;;;;;;9.07;3.97;;;16.40;99.90;;;;;;5077510;28;20282;-71
2022/10/06 09:22:18;;;;;;;6.53;3.53;;;16.40;99.90;;;;;;5094396;28;20190;-70
2022/10/06 09:24:49;;;;;;;8.33;3.37;;;16.50;99.90;;;;;;5093384;28;20206;-70
2022/10/06 09:27:20;;;;;;;6.97;3.30;;;16.60;99.90;;;;;;5094529;28;20617;-72
2022/10/06 09:29:48;;;;;;;6.57;3.60;;;16.60;99.90;;;;;;5094487;28;20198;-69
2022/10/06 09:32:16;;;;;;;5.33;3.17;;;16.70;99.90;;;;;;5079732;28;20227;-70
2022/10/06 09:34:48;;;;;;;8.97;3.43;;;16.80;99.90;;;;;;5073804;28;20220;-71
2022/10/06 09:37:15;;;;;;;7.13;3.70;;;16.90;99.90;;;;;;5083823;28;20218;-70
2022/10/06 09:39:44;;;;;;;5.67;3.27;;;16.90;99.90;;;;;;5093216;28;20265;-70
2022/10/06 09:42:15;;;;;;;7.73;3.53;;;17.00;99.90;;;;;;5094289;28;20201;-72
2022/10/06 09:44:58;;;;;;;6.97;3.73;;;17.00;99.90;;;;;;5092968;28;20658;-71
2022/10/06 09:47:39;;;;;;;5.57;3.40;;;17.10;99.90;;;;;;5088492;28;20203;-70
2022/10/06 09:50:28;;;;;;;5.60;3.30;;;17.20;99.90;;;;;;5094077;28;20258;-70
2022/10/06 09:53:15;;;;;;;5.53;3.47;;;17.20;99.90;;;;;;5082658;28;20261;-72
2022/10/06 09:55:54;;;;;;;8.10;3.10;;;17.30;99.90;;;;;;5076360;28;20187;-72
2022/10/06 09:58:23;;;;;;;5.80;3.30;;;17.30;99.90;;;;;;5092069;28;20209;-70
2022/10/06 10:00:55;;;;;;;7.10;3.30;;;17.40;99.90;;;;;;5091194;28;20207;-70
2022/10/06 10:03:24;;;;;;;4.80;3.10;;;17.40;99.90;;;;;;5093485;28;20381;-68
2022/10/06 10:05:54;;;;;;;5.17;3.17;;;17.50;99.90;;;;;;5086130;28;20567;-69
2022/10/06 10:08:22;;;;;;;3.90;3.23;;;17.60;99.90;;;;;;5093737;28;20203;-69
2022/10/06 10:10:50;;;;;;;8.23;3.37;;;17.60;99.90;;;;;;5083085;28;20228;-69
2022/10/06 10:13:23;;;;;;;6.23;3.27;;;17.60;99.90;;;;;;5090012;28;20220;-69
2022/10/06 10:15:57;;;;;;;7.20;3.90;;;17.70;99.90;;;;;;5088772;28;20603;-69
2022/10/06 10:18:26;;;;;;;5.53;3.17;;;17.80;99.90;;;;;;5086766;28;20228;-70
2022/10/06 10:20:56;;;;;;;6.80;3.40;;;17.80;99.90;;;;;;5083032;28;20645;-68
2022/10/06 10:23:28;;;;;;;5.53;3.37;;;17.80;99.90;;;;;;5086032;28;20199;-67
2022/10/06 10:26:07;;;;;;;6.03;3.00;;;17.80;99.90;;;;;;5088021;28;20193;-69
2022/10/06 10:29:09;;;;;;;9.83;3.63;;;17.90;99.90;;;;;;5092900;28;20192;-68
2022/10/06 10:31:51;;;;;;;8.73;3.50;;;18.00;99.90;;;;;;5093027;28;20207;-69
2022/10/06 10:34:33;;;;;;;7.50;3.10;;;18.00;99.90;;;;;;5090909;28;20193;-69
2022/10/06 10:37:04;;;;;;;11.57;3.40;;;18.10;99.90;;;;;;5093184;28;20200;-69
2022/10/06 10:39:36;;;;;;;6.33;3.60;;;18.10;99.90;;;;;;5082119;28;20216;-69
2022/10/06 10:42:09;;;;;;;5.37;3.50;;;18.20;99.90;;;;;;5072895;28;20189;-71
2022/10/06 10:44:41;;;;;;;5.80;3.50;;;18.20;99.90;;;;;;5073145;28;20196;-67
2022/10/06 10:47:17;;;;;;;7.17;3.87;;;18.30;99.90;;;;;;5090798;28;20201;-70
2022/10/06 10:49:48;;;;;;;8.33;3.33;;;18.40;99.90;;;;;;5092547;28;20231;-70
2022/10/06 10:52:19;;;;;;;6.67;3.20;;;18.40;99.90;;;;;;5092541;28;20547;-69
2022/10/06 10:54:52;;;;;;;8.17;3.53;;;18.50;99.90;;;;;;5092835;28;20208;-69
2022/10/06 10:57:22;;;;;;;9.23;3.63;;;18.50;99.90;;;;;;5091429;28;20210;-68
2022/10/06 10:59:58;;;;;;;4.97;3.00;;;18.50;99.90;;;;;;5092859;28;20633;-70
2022/10/06 11:02:27;;;;;;;6.90;3.53;;;18.60;99.90;;;;;;5090371;28;20203;-68
2022/10/06 11:05:00;;;;;;;6.10;3.30;;;18.60;99.90;;;;;;5086046;28;20207;-67
2022/10/06 11:07:33;;;;;;;9.03;3.80;;;18.70;99.90;;;;;;5087471;28;20311;-69
2022/10/06 11:10:07;;;;;;;9.63;3.50;;;18.70;99.90;;;;;;5092340;28;20235;-69
2022/10/06 11:12:57;;;;;;;6.43;3.30;;;18.70;99.90;;;;;;5085444;28;20553;-68
2022/10/06 11:15:38;;;;;;;5.93;3.27;;;18.80;99.90;;;;;;5072173;28;20195;-68
2022/10/06 11:18:18;;;;;;;11.30;3.70;;;18.80;99.90;;;;;;5075921;28;20195;-68
2022/10/06 11:20:51;;;;;;;9.93;3.73;;;18.80;99.90;;;;;;5088469;28;20291;-67
2022/10/06 11:23:31;;;;;;;7.30;3.63;;;18.90;99.90;;;;;;5088464;28;20194;-67
2022/10/06 11:26:06;;;;;;;5.17;3.07;;;18.90;99.90;;;;;;5087129;28;20564;-67
2022/10/06 11:28:40;;;;;;;7.37;3.53;;;18.90;99.90;;;;;;5092138;28;20244;-68
2022/10/06 11:31:19;;;;;;;7.10;3.47;;;18.90;99.90;;;;;;5092135;28;20609;-69
2022/10/06 11:33:51;;;;;;;6.83;3.67;;;19.00;99.90;;;;;;5087528;28;20288;-70
2022/10/06 11:36:28;;;;;;;8.63;3.70;;;19.10;99.90;;;;;;5075607;28;20205;-68
2022/10/06 11:39:02;;;;;;;6.43;3.80;;;19.10;99.90;;;;;;5077834;28;20199;-68
2022/10/06 11:41:34;;;;;;;5.47;3.67;;;19.20;99.90;;;;;;5092271;28;20632;-69
2022/10/06 11:44:06;;;;;;;5.80;3.40;;;19.20;99.90;;;;;;5092165;28;20195;-69
2022/10/06 11:46:37;;;;;;;9.10;3.83;;;19.20;99.90;;;;;;5092196;28;20194;-70
2022/10/06 11:49:47;;;;;;;7.73;3.47;;;19.20;99.90;;;;;;5084981;28;20206;-68
2022/10/06 11:52:36;;;;;;;4.93;3.13;;;19.20;99.90;;;;;;5072265;28;20623;-69
2022/10/06 11:55:11;;;;;;;6.57;4.03;;;19.30;99.90;;;;;;5071587;28;20214;-70
2022/10/06 11:58:20;;;;;;;7.27;3.40;;;19.30;99.90;;;;;;5085434;28;20207;-68
2022/10/06 12:00:49;;;;;;;6.17;3.83;;;19.30;99.90;;;;;;5085923;28;20203;-70
2022/10/06 12:03:53;;;;;;;6.70;3.60;;;19.30;99.90;;;;;;5086757;28;20208;-69
2022/10/06 12:06:53;;;;;;;9.97;3.97;;;19.40;99.90;;;;;;5086727;28;20617;-70
2022/10/06 12:09:52;;;;;;;6.80;3.80;;;19.40;99.90;;;;;;5082998;28;20573;-71
2022/10/06 12:12:55;;;;;;;8.67;3.90;;;19.40;99.90;;;;;;5079638;28;20207;-69
2022/10/06 12:15:54;;;;;;;6.00;3.33;;;19.40;99.90;;;;;;5071203;28;20228;-69
2022/10/06 12:18:43;;;;;;;4.30;3.30;;;19.50;99.90;;;;;;5092181;28;20280;-69
2022/10/06 12:21:20;;;;;;;4.77;3.33;;;19.50;99.90;;;;;;5079315;28;20560;-71
2022/10/06 12:24:03;;;;;;;5.30;3.40;;;19.60;99.90;;;;;;5083066;28;20563;-70
2022/10/06 12:26:40;;;;;;;7.47;3.70;;;19.60;99.90;;;;;;5090992;28;20184;-69
2022/10/06 12:29:25;;;;;;;7.63;3.80;;;19.60;99.90;;;;;;5087999;28;20286;-68
2022/10/06 12:32:03;;;;;;;6.00;3.50;;;19.60;99.90;;;;;;5082187;28;20232;-69
2022/10/06 12:34:58;;;;;;;10.10;3.57;;;19.60;99.90;;;;;;5093477;28;20215;-71
2022/10/06 12:37:41;;;;;;;5.13;3.27;;;19.70;99.90;;;;;;5093353;28;20571;-72
2022/10/06 12:40:46;;;;;;;7.90;3.33;;;19.70;99.90;;;;;;5088474;28;20199;-69
2022/10/06 12:43:43;;;;;;;11.00;3.40;;;19.70;99.90;;;;;;5077038;28;20196;-70
2022/10/06 12:46:20;;;;;;;7.57;3.40;;;19.60;99.90;;;;;;5080960;28;20213;-69
2022/10/06 12:49:11;;;;;;;6.30;3.40;;;19.70;99.90;;;;;;5086641;28;20719;-70
2022/10/06 12:51:40;;;;;;;5.97;3.90;;;19.70;99.90;;;;;;5082888;28;20204;-69
2022/10/06 12:54:16;;;;;;;6.37;3.13;;;19.70;99.90;;;;;;5091981;28;20217;-69
2022/10/06 12:56:43;;;;;;;5.23;3.43;;;19.70;99.90;;;;;;5094664;28;20196;-68
2022/10/06 12:59:19;;;;;;;6.93;3.20;;;19.70;99.90;;;;;;5094191;28;20613;-67
2022/10/06 13:01:49;;;;;;;7.23;3.37;;;19.70;99.90;;;;;;5091404;28;20200;-69
2022/10/06 13:04:34;;;;;;;6.43;3.40;;;19.70;99.90;;;;;;5093958;28;20214;-69
2022/10/06 13:07:03;;;;;;;12.93;3.33;;;19.70;99.90;;;;;;5092753;28;20209;-68
2022/10/06 13:09:30;;;;;;;6.70;3.13;;;19.70;99.90;;;;;;5094657;28;20238;-69
2022/10/06 13:11:57;;;;;;;5.53;3.30;;;19.70;99.90;;;;;;5091159;28;20462;-69
2022/10/06 13:14:23;;;;;;;9.97;3.03;;;19.70;99.90;;;;;;5074297;28;20230;-69
2022/10/06 13:16:52;;;;;;;6.93;3.60;;;19.70;99.90;;;;;;5077575;28;20218;-69
2022/10/06 13:19:22;;;;;;;7.33;3.17;;;19.70;99.90;;;;;;5094363;28;20206;-68